Aérodrome :
LOGIN :

S'inscrire | Disclaimer

   EN    FR    IT 

 










Légende :    VFR   VFR Marginal   IFR   IFR Intensif   IFR Très Intensif
Visi : 
Plafond : 
>= 8 km
>= 3000ft
5 à 8 km
1000 à 3000 ft
1500m à 5 km
500 à 1000 ft
800 à 1500m
200 à 500 ft
< 800m
< 200 ft
Symboles :   Orages  Brouillard  Fortes neiges  Fortes précipitations  Vent > 20 kt
SIGMETs :   Divers  Orages  Givrage  Turbulence  Onde Orograph.  Cendres Volcan.







- Altitude de l'aérodrome : 778 ft
- Code IATA : BRQ


LKTB - Brno-Turany

DERNIER METAR :
  • 220730Z 08003KT 050V120 CAVOK 15/04 Q1015 NOSIG

METARs EXPIRÉS :
  • 220700Z VRB01KT CAVOK 12/03 Q1015 NOSIG
  • 220630Z VRB02KT CAVOK 11/03 Q1015 NOSIG
  • 220600Z 27003KT CAVOK 09/03 Q1015 NOSIG
  • 220530Z 29003KT CAVOK 08/02 Q1015 NOSIG
  • 220500Z VRB02KT CAVOK 07/01 Q1015 NOSIG

TAF TAF LKTB
Valide du 22 à 06h jusqu'au 23 à 12h UTC


220500Z 2206/2312 36004KT CAVOK
BECMG 2208/2210 07014KT
TEMPO 2210/2306 09016G30KT
BECMG 2220/2222 9999 BKN030
TEMPO 2300/2306 RA BKN020
Pas de NOTAMs connus pour ce terrain.



MET'MAP, la Météo Aéronautique d'un coup d'oeil ! - Copyright ORBIFLY Décembre 2007 - Disclaimer

ORBIFLY MET'MAP TEAM :

Programmation & Développement : Alexandra Zaïnal
Conception & Développement : Baudouin d'Aumeries
Co-Programmation & Développement : Marc-Olivier Méhu
Soutien technique & logistique : Manuel Goepfert

Contact : metmap@orbifly.com




SOURCES & CREDITS :

   NOAA